Terminal Aerodrome Forecast
Issued by NWS

Home | Current Version | Previous Version | Text Only | Print | Product List | Glossary On
Versions: 1 2 3 4 5 6 7 8 9 10 11 12 13 14
000
FTUS43 KGRB 010500
TAFMTW
TAF
KMTW 010537Z 0106/0206 35010G17KT P6SM OVC035
     FM011700 01007KT P6SM BKN035
     FM012100 34003KT P6SM SCT040=

USA.gov is the U.S. government's official web portal to all federal, state and local government web resources and services.